createdAt,value
2022-10-02T00:02:30.113Z,2.90
2022-10-02T00:06:43.645Z,1.95
2022-10-02T00:10:57.124Z,1.83
2022-10-02T00:15:29.584Z,1.45
2022-10-02T00:19:31.734Z,1.95
2022-10-02T00:23:41.106Z,1.67
2022-10-02T00:28:02.935Z,1.70
2022-10-02T00:32:28.971Z,1.77
2022-10-02T00:36:52.835Z,1.67
2022-10-02T00:41:19.797Z,1.63
2022-10-02T00:45:55.965Z,1.35
2022-10-02T00:50:24.121Z,1.75
2022-10-02T00:54:31.447Z,1.40
2022-10-02T01:02:43.589Z,1.50
2022-10-02T01:06:45.909Z,1.48
2022-10-02T01:10:48.290Z,1.85
2022-10-02T01:14:50.296Z,1.75
2022-10-02T01:18:52.546Z,1.42
2022-10-02T01:23:17.139Z,1.33
2022-10-02T01:27:19.521Z,1.35
2022-10-02T01:31:22.552Z,1.20
2022-10-02T01:35:32.321Z,2.00
2022-10-02T01:39:34.968Z,1.85
2022-10-02T01:43:45.451Z,1.80
2022-10-02T01:48:07.181Z,1.40
2022-10-02T01:52:21.287Z,1.80
2022-10-02T01:56:49.219Z,1.55
2022-10-02T02:01:15.991Z,2.13
2022-10-02T02:05:41.648Z,1.65
2022-10-02T02:09:54.378Z,1.95
2022-10-02T02:14:14.725Z,1.58
2022-10-02T02:18:25.958Z,1.50
2022-10-02T02:22:33.254Z,1.73
2022-10-02T02:30:42.736Z,1.30
2022-10-02T02:34:51.333Z,2.27
2022-10-02T02:39:02.994Z,1.35
2022-10-02T02:43:10.861Z,1.58
2022-10-02T02:47:28.456Z,1.50
2022-10-02T02:51:35.268Z,1.60
2022-10-02T02:55:47.687Z,2.30
2022-10-02T02:59:50.871Z,1.60
2022-10-02T03:03:53.178Z,1.55
2022-10-02T03:08:03.348Z,1.73
2022-10-02T03:12:54.098Z,2.10
2022-10-02T03:17:26.928Z,1.63
2022-10-02T03:21:43.860Z,1.98
2022-10-02T03:26:04.631Z,2.38
2022-10-02T03:30:12.749Z,1.75
2022-10-02T03:34:14.856Z,1.42
2022-10-02T03:38:18.862Z,2.05
2022-10-02T03:42:26.178Z,1.70
2022-10-02T03:50:34.134Z,2.40
2022-10-02T03:54:38.517Z,2.92
2022-10-02T03:58:45.205Z,1.67
2022-10-02T04:02:58.031Z,1.98
2022-10-02T04:07:04.773Z,1.50
2022-10-02T04:11:16.817Z,1.90
2022-10-02T04:15:30.835Z,1.90
2022-10-02T04:19:35.952Z,2.00
2022-10-02T04:23:49.294Z,1.88
2022-10-02T04:27:59.411Z,1.50
2022-10-02T04:32:13.309Z,2.25
2022-10-02T04:36:38.608Z,1.80
2022-10-02T04:40:58.841Z,1.63
2022-10-02T04:45:20.643Z,1.95
2022-10-02T04:49:47.248Z,1.38
2022-10-02T04:54:07.998Z,1.60
2022-10-02T04:58:28.865Z,1.50
2022-10-02T05:02:48.184Z,2.17
2022-10-02T05:07:33.312Z,1.90
2022-10-02T05:11:58.552Z,1.30
2022-10-02T05:16:50.500Z,1.63
2022-10-02T05:21:01.159Z,2.22
2022-10-02T05:25:29.013Z,1.90
2022-10-02T05:29:55.110Z,2.05
2022-10-02T05:34:12.111Z,1.67
2022-10-02T05:38:30.250Z,1.98
2022-10-02T05:42:49.344Z,1.45
2022-10-02T05:47:05.488Z,1.80
2022-10-02T05:51:16.376Z,1.02
2022-10-02T05:55:28.450Z,1.40
2022-10-02T05:59:52.139Z,1.48
2022-10-02T06:04:14.994Z,1.83
2022-10-02T06:08:21.833Z,1.70
2022-10-02T06:12:30.816Z,1.20
2022-10-02T06:16:37.102Z,1.75
2022-10-02T06:20:48.465Z,2.07
2022-10-02T06:25:14.160Z,1.45
2022-10-02T06:29:31.352Z,1.27
2022-10-02T06:33:33.537Z,1.55
2022-10-02T06:37:56.637Z,1.50
2022-10-02T06:42:16.682Z,1.60
2022-10-02T06:46:53.109Z,1.45
2022-10-02T06:51:12.608Z,1.48
2022-10-02T06:55:40.717Z,1.50
2022-10-02T07:00:05.654Z,1.58
2022-10-02T07:04:16.844Z,1.17
2022-10-02T07:08:47.195Z,1.70
2022-10-02T07:13:26.232Z,1.20
2022-10-02T07:17:34.360Z,2.05
2022-10-02T07:21:48.666Z,1.83
2022-10-02T07:26:05.816Z,1.90
2022-10-02T07:30:12.871Z,1.73
2022-10-02T07:34:33.465Z,1.83
2022-10-02T07:38:47.947Z,1.90
2022-10-02T07:43:20.385Z,3.13
2022-10-02T07:47:41.192Z,3.05
2022-10-02T07:51:58.026Z,3.05
2022-10-02T07:56:00.732Z,3.53
2022-10-02T08:00:16.397Z,1.00
2022-10-02T08:04:26.878Z,0.90
2022-10-02T08:08:50.722Z,0.90
2022-10-02T08:13:00.460Z,0.70
2022-10-02T08:17:23.146Z,0.60
2022-10-02T08:21:26.193Z,0.63
2022-10-02T08:25:52.469Z,0.73
2022-10-02T08:29:54.436Z,0.55
2022-10-02T08:33:57.537Z,0.82
2022-10-02T08:38:21.553Z,0.70
2022-10-02T08:42:49.631Z,0.50
2022-10-02T08:47:37.177Z,0.57
2022-10-02T08:52:13.881Z,0.50
2022-10-02T08:56:24.735Z,0.50
2022-10-02T09:00:39.713Z,0.40
2022-10-02T09:05:09.633Z,0.38
2022-10-02T09:09:42.839Z,0.38
2022-10-02T09:14:17.675Z,0.30
2022-10-02T09:18:46.279Z,0.43
2022-10-02T09:23:22.164Z,0.25
2022-10-02T09:28:04.752Z,0.50
2022-10-02T09:32:12.626Z,0.57
2022-10-02T09:36:33.728Z,0.80
2022-10-02T09:41:07.136Z,0.40
2022-10-02T09:45:32.330Z,0.20
2022-10-02T09:49:42.109Z,0.13
2022-10-02T09:53:57.200Z,0.30
2022-10-02T09:58:38.021Z,0.20
2022-10-02T10:02:42.824Z,0.20
2022-10-02T10:07:03.200Z,0.20
2022-10-02T10:11:47.675Z,0.13
2022-10-02T10:16:19.843Z,0.40
2022-10-02T10:20:36.648Z,0.40
2022-10-02T10:24:55.121Z,0.50
2022-10-02T10:29:39.767Z,0.80
2022-10-02T10:34:03.099Z,0.30
2022-10-02T10:38:33.092Z,0.50
2022-10-02T10:43:07.587Z,0.50
2022-10-02T10:47:29.103Z,0.35
2022-10-02T10:51:52.847Z,0.50
2022-10-02T10:56:14.430Z,0.60
2022-10-02T11:00:31.529Z,0.40
2022-10-02T11:05:07.733Z,0.50
2022-10-02T11:09:34.710Z,0.50
2022-10-02T11:14:23.018Z,1.20
2022-10-02T11:18:46.659Z,0.30
2022-10-02T11:23:34.116Z,0.50
2022-10-02T11:27:57.498Z,0.40
2022-10-02T11:32:14.210Z,0.60
2022-10-02T11:36:42.648Z,0.70
2022-10-02T11:40:50.952Z,0.50
2022-10-02T11:45:18.758Z,0.25
2022-10-02T11:50:02.079Z,0.30
2022-10-02T11:54:19.276Z,0.88
2022-10-02T11:58:51.493Z,15.75
2022-10-02T12:03:25.623Z,1.42
2022-10-02T12:07:38.838Z,0.30
2022-10-02T12:12:27.857Z,0.30
2022-10-02T12:17:06.320Z,0.20
2022-10-02T12:21:47.660Z,0.30
2022-10-02T12:26:17.642Z,0.30
2022-10-02T12:30:24.062Z,0.28
2022-10-02T12:34:50.251Z,0.30
2022-10-02T12:39:24.570Z,0.40
2022-10-02T12:44:05.828Z,0.30
2022-10-02T12:48:45.962Z,0.20
2022-10-02T12:53:22.703Z,0.40
2022-10-02T12:57:52.805Z,0.90
2022-10-02T13:02:56.065Z,0.40
2022-10-02T13:07:13.533Z,0.30
2022-10-02T13:11:39.258Z,0.40
2022-10-02T13:15:54.719Z,0.40
2022-10-02T13:20:13.647Z,0.35
2022-10-02T13:24:40.419Z,0.25
2022-10-02T13:29:23.473Z,0.40
2022-10-02T13:34:06.883Z,0.68
2022-10-02T13:38:23.233Z,0.50
2022-10-02T13:42:46.984Z,0.30
2022-10-02T13:46:56.907Z,0.40
2022-10-02T13:51:18.555Z,0.43
2022-10-02T13:55:26.244Z,1.70
2022-10-02T13:59:34.228Z,1.50
2022-10-02T14:03:54.589Z,1.08
2022-10-02T14:08:26.537Z,0.88
2022-10-02T14:12:49.929Z,0.98
2022-10-02T14:16:55.675Z,0.60
2022-10-02T14:21:00.627Z,0.90
2022-10-02T14:25:22.763Z,0.82
2022-10-02T14:29:38.908Z,0.90
2022-10-02T14:34:01.380Z,1.05
2022-10-02T14:38:27.955Z,0.85
2022-10-02T14:42:43.559Z,0.70
2022-10-02T14:47:08.433Z,0.90
2022-10-02T14:51:31.522Z,0.80
2022-10-02T14:55:54.902Z,0.90
2022-10-02T15:00:13.667Z,1.40
2022-10-02T15:04:30.072Z,1.50
2022-10-02T15:09:05.473Z,1.67
2022-10-02T15:13:26.698Z,1.27
2022-10-02T15:18:09.521Z,1.38
2022-10-02T15:22:20.217Z,1.10
2022-10-02T15:26:52.282Z,1.00
2022-10-02T15:31:12.582Z,1.30
2022-10-02T15:35:29.240Z,1.75
2022-10-02T15:39:48.215Z,1.23
2022-10-02T15:44:31.734Z,1.30
2022-10-02T15:49:04.950Z,1.50
2022-10-02T15:53:37.067Z,1.90
2022-10-02T15:57:57.168Z,1.70
2022-10-02T16:02:21.638Z,1.52
2022-10-02T16:06:50.655Z,1.80
2022-10-02T16:11:15.375Z,3.38
2022-10-02T16:15:29.500Z,8.85
2022-10-02T16:19:50.221Z,2.17
2022-10-02T16:24:11.011Z,7.35
2022-10-02T16:28:45.232Z,2.10
2022-10-02T16:33:26.155Z,2.40
2022-10-02T16:37:45.027Z,3.15
2022-10-02T16:41:59.808Z,2.13
2022-10-02T16:46:25.045Z,2.33
2022-10-02T16:51:05.197Z,1.95
2022-10-02T16:55:25.739Z,2.40
2022-10-02T16:59:38.761Z,4.10
2022-10-02T17:03:48.540Z,5.95
2022-10-02T17:07:59.803Z,9.90
2022-10-02T17:12:13.205Z,3.90
2022-10-02T17:16:45.763Z,3.42
2022-10-02T17:20:51.292Z,3.25
2022-10-02T17:25:15.883Z,4.43
2022-10-02T17:29:27.821Z,14.20
2022-10-02T17:33:44.203Z,5.53
2022-10-02T17:38:14.133Z,14.65
2022-10-02T17:42:30.282Z,5.90
2022-10-02T17:46:56.186Z,4.53
2022-10-02T17:51:47.575Z,3.45
2022-10-02T17:56:23.191Z,4.07
2022-10-02T18:00:26.460Z,3.08
2022-10-02T18:04:39.494Z,3.30
2022-10-02T18:08:50.724Z,3.20
2022-10-02T18:13:11.697Z,4.10
2022-10-02T18:17:20.816Z,2.92
2022-10-02T18:21:35.297Z,5.10
2022-10-02T18:25:45.881Z,4.88
2022-10-02T18:30:13.225Z,5.63
2022-10-02T18:34:34.073Z,4.38
2022-10-02T18:38:59.587Z,3.45
2022-10-02T18:43:18.797Z,4.45
2022-10-02T18:47:46.838Z,5.25
2022-10-02T18:56:04.356Z,5.43
2022-10-02T19:00:15.689Z,3.40
2022-10-02T19:04:17.707Z,3.85
2022-10-02T19:08:30.590Z,3.30
2022-10-02T19:12:33.805Z,4.30
2022-10-02T19:16:35.879Z,3.55
2022-10-02T19:20:48.949Z,3.40
2022-10-02T19:24:57.526Z,4.40
2022-10-02T19:29:08.365Z,4.80
2022-10-02T19:33:21.560Z,4.43
2022-10-02T19:37:26.190Z,4.05
2022-10-02T19:41:34.112Z,3.50
2022-10-02T19:45:41.136Z,4.28
2022-10-02T19:49:47.328Z,6.63
2022-10-02T19:53:58.224Z,3.40
2022-10-02T19:58:06.324Z,3.50
2022-10-02T20:02:18.391Z,3.70
2022-10-02T20:06:23.046Z,3.75
2022-10-02T20:10:50.765Z,3.97
2022-10-02T20:15:43.610Z,4.22
2022-10-02T20:19:56.066Z,4.55
2022-10-02T20:24:00.655Z,4.60
2022-10-02T20:28:14.045Z,3.90
2022-10-02T20:32:24.129Z,5.18
2022-10-02T20:36:37.915Z,4.20
2022-10-02T20:40:46.438Z,4.13
2022-10-02T20:44:49.115Z,4.13
2022-10-02T20:49:20.433Z,4.95
2022-10-02T20:53:34.681Z,4.97
2022-10-02T20:58:12.181Z,4.75
2022-10-02T21:02:17.852Z,4.60
2022-10-02T21:06:32.127Z,4.28
2022-10-02T21:10:45.105Z,4.88
2022-10-02T21:15:00.830Z,4.75
2022-10-02T21:19:31.118Z,9.10
2022-10-02T21:23:58.401Z,7.60
2022-10-02T21:28:24.218Z,11.60
2022-10-02T21:32:47.720Z,4.32
2022-10-02T21:36:58.521Z,4.43
2022-10-02T21:41:04.143Z,4.82
2022-10-02T21:45:36.153Z,4.30
2022-10-02T21:50:12.158Z,4.68
2022-10-02T21:54:52.450Z,6.25
2022-10-02T21:59:28.645Z,6.10
2022-10-02T22:04:03.025Z,5.18
2022-10-02T22:08:13.972Z,5.70
2022-10-02T22:12:58.662Z,5.28
2022-10-02T22:17:11.189Z,5.22
2022-10-02T22:21:37.986Z,4.90
2022-10-02T22:25:58.017Z,5.28
2022-10-02T22:30:00.184Z,5.63
2022-10-02T22:34:32.431Z,5.90
2022-10-02T22:38:42.089Z,6.10
2022-10-02T22:43:01.064Z,6.43
2022-10-02T22:47:13.783Z,6.32
2022-10-02T22:51:22.841Z,6.80
2022-10-02T22:55:33.925Z,6.05
2022-10-02T22:59:45.879Z,6.50
2022-10-02T23:03:56.440Z,6.20
2022-10-02T23:08:15.913Z,6.22
2022-10-02T23:12:39.849Z,7.20
2022-10-02T23:16:48.951Z,6.10
2022-10-02T23:21:29.951Z,6.40
2022-10-02T23:25:46.125Z,6.32
2022-10-02T23:30:04.515Z,6.63
2022-10-02T23:34:17.577Z,6.30
2022-10-02T23:38:48.170Z,6.15
2022-10-02T23:42:58.796Z,5.88
2022-10-02T23:47:10.034Z,5.72
2022-10-02T23:51:27.651Z,6.10
